Startpagina
METAR-TAF:

METAR-TAF

Vliegvelden :

Hunt Field

Lander, Wyoming, Verenigde Staten

breedte: 42-48-53N, lengte: 108-43-41W, hoogte: 1703 m

Actueel weer

Dit bericht is 13 minuten geleden gemaakt, om 03:53 UTC
Wind 3 kt uit het zuiden
Temperatuur -4°C
Vochtigheid 68%
Druk 1015 hPa
Zicht: 16.1 km
Onbewolkt

METAR: KLND 120353Z AUTO 19003KT 10SM CLR M04/M09 A2996 RMK AO2 SLP198 T10441094

Tijdstip: 21:06 (04:06 UTC)

Verwachting

Dit bericht is 4 uur en het 41 minuten geleden gemaakt, om 23:25 UTC
Verwachting geldig van 12 om 00 UTC tot 12 om 24 UTC
Wind 7 kt uit het westzuidwesten
Zicht: 10 km
Verspreide wolken op 9000 ft
Van 12 om 1400 UTC
Wind 9 kt uit het westzuidwesten
Zicht: 10 km
Gebroken wolken op 6000 ft
Gebroken wolken op 15000 ft

TAF: KLND 112325Z 1200/1224 25007KT P6SM SCT090 FM121400 25009KT P6SM BKN060 BKN150

Waarnemingen en weersverwachtingen van meer dan 4000 vliegvelden (METAR en TAF).

De beschikbare stations zijn de gele en rode punten op de kaart.

Ga met uw muis naar het station om de naam te zien.

Klik dan om waarnemingen en weersverwachtingen te zien.

kaart wijzigen: klik op de groene knoppen met een zwart kruis om in te zoomen, op de groene knop met een streepje om uit te zoomen of op de groene pijlen voor aangrenzende kaarten.


METAR-TAF: